sensor_id;sensor_type;location;lat;lon;timestamp;P1;durP1;ratioP1;P2;durP2;ratioP2
19161;SDS011;9713;48.140;11.530;2024-03-25T00:02:48;5.13;;;1.53;;
19161;SDS011;9713;48.140;11.530;2024-03-25T00:06:30;1.97;;;1.27;;
19161;SDS011;9713;48.140;11.530;2024-03-25T00:10:15;4.03;;;1.43;;
19161;SDS011;9713;48.140;11.530;2024-03-25T00:13:57;4.83;;;1.60;;
19161;SDS011;9713;48.140;11.530;2024-03-25T00:17:39;2.10;;;1.50;;
19161;SDS011;9713;48.140;11.530;2024-03-25T00:21:22;2.73;;;1.73;;
19161;SDS011;9713;48.140;11.530;2024-03-25T00:25:05;3.47;;;1.50;;
19161;SDS011;9713;48.140;11.530;2024-03-25T00:28:49;4.17;;;1.50;;
19161;SDS011;9713;48.140;11.530;2024-03-25T00:32:31;2.80;;;1.63;;
19161;SDS011;9713;48.140;11.530;2024-03-25T00:36:12;4.00;;;1.60;;
19161;SDS011;9713;48.140;11.530;2024-03-25T00:39:55;2.87;;;1.83;;
19161;SDS011;9713;48.140;11.530;2024-03-25T00:43:36;2.10;;;1.50;;
19161;SDS011;9713;48.140;11.530;2024-03-25T00:47:19;4.43;;;1.60;;
19161;SDS011;9713;48.140;11.530;2024-03-25T00:51:02;3.53;;;1.70;;
19161;SDS011;9713;48.140;11.530;2024-03-25T00:54:44;4.93;;;1.57;;
19161;SDS011;9713;48.140;11.530;2024-03-25T00:58:26;3.97;;;1.77;;
19161;SDS011;9713;48.140;11.530;2024-03-25T01:02:08;2.97;;;1.57;;
19161;SDS011;9713;48.140;11.530;2024-03-25T01:05:51;2.90;;;1.40;;
19161;SDS011;9713;48.140;11.530;2024-03-25T01:09:33;2.53;;;1.50;;
19161;SDS011;9713;48.140;11.530;2024-03-25T01:13:15;1.90;;;1.33;;
19161;SDS011;9713;48.140;11.530;2024-03-25T01:16:57;3.10;;;1.70;;
19161;SDS011;9713;48.140;11.530;2024-03-25T01:20:39;3.57;;;1.40;;
19161;SDS011;9713;48.140;11.530;2024-03-25T01:24:23;5.10;;;1.83;;
19161;SDS011;9713;48.140;11.530;2024-03-25T01:28:04;4.70;;;1.60;;
19161;SDS011;9713;48.140;11.530;2024-03-25T01:31:46;5.93;;;1.50;;
19161;SDS011;9713;48.140;11.530;2024-03-25T01:35:29;2.80;;;1.90;;
19161;SDS011;9713;48.140;11.530;2024-03-25T01:39:11;4.70;;;1.60;;
19161;SDS011;9713;48.140;11.530;2024-03-25T01:42:59;3.83;;;1.33;;
19161;SDS011;9713;48.140;11.530;2024-03-25T01:46:41;3.87;;;1.63;;
19161;SDS011;9713;48.140;11.530;2024-03-25T01:50:24;3.00;;;1.40;;
19161;SDS011;9713;48.140;11.530;2024-03-25T01:54:06;2.70;;;1.43;;
19161;SDS011;9713;48.140;11.530;2024-03-25T01:57:49;3.23;;;1.43;;
19161;SDS011;9713;48.140;11.530;2024-03-25T02:01:32;3.83;;;1.40;;
19161;SDS011;9713;48.140;11.530;2024-03-25T02:05:15;3.00;;;1.60;;
19161;SDS011;9713;48.140;11.530;2024-03-25T02:08:58;2.90;;;1.70;;
19161;SDS011;9713;48.140;11.530;2024-03-25T02:12:40;2.13;;;1.40;;
19161;SDS011;9713;48.140;11.530;2024-03-25T02:16:23;2.40;;;1.57;;
19161;SDS011;9713;48.140;11.530;2024-03-25T02:20:06;2.60;;;1.60;;
19161;SDS011;9713;48.140;11.530;2024-03-25T02:23:49;2.03;;;1.30;;
19161;SDS011;9713;48.140;11.530;2024-03-25T02:27:36;4.00;;;1.50;;
19161;SDS011;9713;48.140;11.530;2024-03-25T02:31:18;4.90;;;1.70;;
19161;SDS011;9713;48.140;11.530;2024-03-25T02:35:00;2.57;;;1.53;;
19161;SDS011;9713;48.140;11.530;2024-03-25T02:38:43;2.20;;;1.60;;
19161;SDS011;9713;48.140;11.530;2024-03-25T02:42:25;2.33;;;1.70;;
19161;SDS011;9713;48.140;11.530;2024-03-25T02:46:09;3.57;;;1.70;;
19161;SDS011;9713;48.140;11.530;2024-03-25T02:49:51;1.97;;;1.50;;
19161;SDS011;9713;48.140;11.530;2024-03-25T02:53:33;3.00;;;1.70;;
19161;SDS011;9713;48.140;11.530;2024-03-25T02:57:15;2.17;;;1.50;;
19161;SDS011;9713;48.140;11.530;2024-03-25T03:00:57;4.37;;;1.90;;
19161;SDS011;9713;48.140;11.530;2024-03-25T03:04:40;3.37;;;1.70;;
19161;SDS011;9713;48.140;11.530;2024-03-25T03:08:22;2.90;;;1.80;;
19161;SDS011;9713;48.140;11.530;2024-03-25T03:12:04;3.93;;;1.70;;
19161;SDS011;9713;48.140;11.530;2024-03-25T03:15:48;3.50;;;1.80;;
19161;SDS011;9713;48.140;11.530;2024-03-25T03:19:30;3.80;;;1.90;;
19161;SDS011;9713;48.140;11.530;2024-03-25T03:23:13;7.53;;;2.30;;
19161;SDS011;9713;48.140;11.530;2024-03-25T03:26:55;3.00;;;1.77;;
19161;SDS011;9713;48.140;11.530;2024-03-25T03:30:36;3.13;;;1.87;;
19161;SDS011;9713;48.140;11.530;2024-03-25T03:34:18;4.93;;;1.90;;
19161;SDS011;9713;48.140;11.530;2024-03-25T03:38:00;4.70;;;1.87;;
19161;SDS011;9713;48.140;11.530;2024-03-25T03:41:44;4.27;;;2.10;;
19161;SDS011;9713;48.140;11.530;2024-03-25T03:45:26;3.60;;;1.90;;
19161;SDS011;9713;48.140;11.530;2024-03-25T03:49:07;2.93;;;1.77;;
19161;SDS011;9713;48.140;11.530;2024-03-25T03:52:49;4.43;;;2.10;;
19161;SDS011;9713;48.140;11.530;2024-03-25T03:56:31;2.47;;;1.77;;
19161;SDS011;9713;48.140;11.530;2024-03-25T04:00:14;3.93;;;2.00;;
19161;SDS011;9713;48.140;11.530;2024-03-25T04:03:56;5.03;;;1.80;;
19161;SDS011;9713;48.140;11.530;2024-03-25T04:07:38;4.67;;;1.70;;
19161;SDS011;9713;48.140;11.530;2024-03-25T04:11:19;3.07;;;1.77;;
19161;SDS011;9713;48.140;11.530;2024-03-25T04:15:01;4.53;;;1.70;;
19161;SDS011;9713;48.140;11.530;2024-03-25T04:18:45;5.00;;;1.70;;
19161;SDS011;9713;48.140;11.530;2024-03-25T04:22:29;2.33;;;1.50;;
19161;SDS011;9713;48.140;11.530;2024-03-25T04:26:11;2.80;;;1.77;;
19161;SDS011;9713;48.140;11.530;2024-03-25T04:29:54;3.13;;;1.50;;
19161;SDS011;9713;48.140;11.530;2024-03-25T04:33:36;3.00;;;1.80;;
19161;SDS011;9713;48.140;11.530;2024-03-25T04:37:19;3.90;;;1.93;;
19161;SDS011;9713;48.140;11.530;2024-03-25T04:41:00;4.00;;;1.80;;
19161;SDS011;9713;48.140;11.530;2024-03-25T04:44:41;3.80;;;1.90;;
19161;SDS011;9713;48.140;11.530;2024-03-25T04:48:22;2.63;;;1.77;;
19161;SDS011;9713;48.140;11.530;2024-03-25T04:52:03;4.63;;;2.00;;
19161;SDS011;9713;48.140;11.530;2024-03-25T04:55:46;3.03;;;1.80;;
19161;SDS011;9713;48.140;11.530;2024-03-25T04:59:27;4.23;;;1.80;;
19161;SDS011;9713;48.140;11.530;2024-03-25T05:03:08;6.80;;;2.37;;
19161;SDS011;9713;48.140;11.530;2024-03-25T05:06:49;5.03;;;1.63;;
19161;SDS011;9713;48.140;11.530;2024-03-25T05:10:30;4.43;;;2.00;;
19161;SDS011;9713;48.140;11.530;2024-03-25T05:14:12;3.97;;;1.90;;
19161;SDS011;9713;48.140;11.530;2024-03-25T05:17:53;5.97;;;1.90;;
19161;SDS011;9713;48.140;11.530;2024-03-25T05:21:34;3.77;;;1.93;;
19161;SDS011;9713;48.140;11.530;2024-03-25T05:25:15;4.67;;;1.90;;
19161;SDS011;9713;48.140;11.530;2024-03-25T05:28:56;5.67;;;2.10;;
19161;SDS011;9713;48.140;11.530;2024-03-25T05:32:39;2.43;;;1.70;;
19161;SDS011;9713;48.140;11.530;2024-03-25T05:36:20;3.07;;;1.80;;
19161;SDS011;9713;48.140;11.530;2024-03-25T05:40:01;4.20;;;1.70;;
19161;SDS011;9713;48.140;11.530;2024-03-25T05:43:43;6.20;;;2.23;;
19161;SDS011;9713;48.140;11.530;2024-03-25T05:47:24;4.80;;;1.73;;
19161;SDS011;9713;48.140;11.530;2024-03-25T05:51:06;3.77;;;1.90;;
19161;SDS011;9713;48.140;11.530;2024-03-25T05:54:48;5.80;;;2.00;;
19161;SDS011;9713;48.140;11.530;2024-03-25T05:58:29;5.23;;;2.10;;
19161;SDS011;9713;48.140;11.530;2024-03-25T06:02:10;3.80;;;1.90;;
19161;SDS011;9713;48.140;11.530;2024-03-25T06:05:51;3.43;;;1.90;;
19161;SDS011;9713;48.140;11.530;2024-03-25T06:09:33;3.90;;;2.20;;
19161;SDS011;9713;48.140;11.530;2024-03-25T06:13:14;3.73;;;2.00;;
19161;SDS011;9713;48.140;11.530;2024-03-25T06:16:55;4.70;;;1.90;;
19161;SDS011;9713;48.140;11.530;2024-03-25T06:20:37;3.00;;;1.87;;
19161;SDS011;9713;48.140;11.530;2024-03-25T06:24:19;2.83;;;1.93;;
19161;SDS011;9713;48.140;11.530;2024-03-25T06:28:01;5.23;;;2.00;;
19161;SDS011;9713;48.140;11.530;2024-03-25T06:31:42;7.50;;;2.10;;
19161;SDS011;9713;48.140;11.530;2024-03-25T06:35:42;4.93;;;2.20;;
19161;SDS011;9713;48.140;11.530;2024-03-25T06:39:23;3.40;;;2.07;;
19161;SDS011;9713;48.140;11.530;2024-03-25T06:43:06;6.43;;;2.30;;
19161;SDS011;9713;48.140;11.530;2024-03-25T06:46:47;5.43;;;2.10;;
19161;SDS011;9713;48.140;11.530;2024-03-25T06:50:28;4.13;;;2.17;;
19161;SDS011;9713;48.140;11.530;2024-03-25T06:54:09;3.03;;;1.73;;
19161;SDS011;9713;48.140;11.530;2024-03-25T06:57:50;8.00;;;2.37;;
19161;SDS011;9713;48.140;11.530;2024-03-25T07:01:32;3.87;;;2.20;;
19161;SDS011;9713;48.140;11.530;2024-03-25T07:05:13;4.33;;;2.10;;
19161;SDS011;9713;48.140;11.530;2024-03-25T07:08:55;4.20;;;1.90;;
19161;SDS011;9713;48.140;11.530;2024-03-25T07:12:36;3.57;;;2.03;;
19161;SDS011;9713;48.140;11.530;2024-03-25T07:16:17;3.13;;;1.90;;
19161;SDS011;9713;48.140;11.530;2024-03-25T07:20:03;3.37;;;2.07;;
19161;SDS011;9713;48.140;11.530;2024-03-25T07:23:45;6.63;;;1.80;;
19161;SDS011;9713;48.140;11.530;2024-03-25T07:27:26;4.87;;;1.87;;
19161;SDS011;9713;48.140;11.530;2024-03-25T07:31:07;3.97;;;2.17;;
19161;SDS011;9713;48.140;11.530;2024-03-25T07:34:48;6.30;;;2.10;;
19161;SDS011;9713;48.140;11.530;2024-03-25T07:38:30;6.20;;;1.93;;
19161;SDS011;9713;48.140;11.530;2024-03-25T07:42:11;6.87;;;2.23;;
19161;SDS011;9713;48.140;11.530;2024-03-25T07:45:53;5.13;;;2.20;;
19161;SDS011;9713;48.140;11.530;2024-03-25T07:49:34;4.77;;;2.13;;
19161;SDS011;9713;48.140;11.530;2024-03-25T07:53:15;6.63;;;2.40;;
19161;SDS011;9713;48.140;11.530;2024-03-25T07:56:57;5.17;;;2.10;;
19161;SDS011;9713;48.140;11.530;2024-03-25T08:00:38;5.10;;;1.90;;
19161;SDS011;9713;48.140;11.530;2024-03-25T08:04:19;7.07;;;2.07;;
19161;SDS011;9713;48.140;11.530;2024-03-25T08:08:00;7.40;;;2.27;;
19161;SDS011;9713;48.140;11.530;2024-03-25T08:11:41;5.00;;;2.30;;
19161;SDS011;9713;48.140;11.530;2024-03-25T08:15:24;5.37;;;2.10;;
19161;SDS011;9713;48.140;11.530;2024-03-25T08:19:05;4.10;;;2.20;;
19161;SDS011;9713;48.140;11.530;2024-03-25T08:22:48;6.83;;;2.13;;
19161;SDS011;9713;48.140;11.530;2024-03-25T08:26:29;5.17;;;2.03;;
19161;SDS011;9713;48.140;11.530;2024-03-25T08:30:10;4.10;;;2.07;;
19161;SDS011;9713;48.140;11.530;2024-03-25T08:33:53;4.93;;;2.07;;
19161;SDS011;9713;48.140;11.530;2024-03-25T08:37:34;3.23;;;2.00;;
19161;SDS011;9713;48.140;11.530;2024-03-25T08:41:15;5.63;;;2.20;;
19161;SDS011;9713;48.140;11.530;2024-03-25T08:44:56;5.97;;;2.50;;
19161;SDS011;9713;48.140;11.530;2024-03-25T08:48:37;9.30;;;2.63;;
19161;SDS011;9713;48.140;11.530;2024-03-25T08:52:19;5.07;;;2.00;;
19161;SDS011;9713;48.140;11.530;2024-03-25T08:56:00;4.63;;;1.80;;
19161;SDS011;9713;48.140;11.530;2024-03-25T08:59:41;6.10;;;1.97;;
19161;SDS011;9713;48.140;11.530;2024-03-25T09:03:23;6.23;;;2.30;;
19161;SDS011;9713;48.140;11.530;2024-03-25T09:07:04;3.13;;;1.70;;
19161;SDS011;9713;48.140;11.530;2024-03-25T09:10:46;4.80;;;1.80;;
19161;SDS011;9713;48.140;11.530;2024-03-25T09:14:48;3.73;;;1.57;;
19161;SDS011;9713;48.140;11.530;2024-03-25T09:18:29;5.73;;;2.13;;
19161;SDS011;9713;48.140;11.530;2024-03-25T09:22:10;6.23;;;1.60;;
19161;SDS011;9713;48.140;11.530;2024-03-25T09:25:53;6.03;;;1.70;;
19161;SDS011;9713;48.140;11.530;2024-03-25T09:29:34;2.93;;;1.40;;
19161;SDS011;9713;48.140;11.530;2024-03-25T09:33:16;6.13;;;1.73;;
19161;SDS011;9713;48.140;11.530;2024-03-25T09:36:57;4.83;;;1.57;;
19161;SDS011;9713;48.140;11.530;2024-03-25T09:40:39;4.17;;;1.70;;
19161;SDS011;9713;48.140;11.530;2024-03-25T09:44:23;2.90;;;1.60;;
19161;SDS011;9713;48.140;11.530;2024-03-25T09:48:05;4.00;;;1.70;;
19161;SDS011;9713;48.140;11.530;2024-03-25T09:51:47;2.90;;;1.53;;
19161;SDS011;9713;48.140;11.530;2024-03-25T09:55:29;3.23;;;1.53;;
19161;SDS011;9713;48.140;11.530;2024-03-25T09:59:11;4.97;;;1.60;;
19161;SDS011;9713;48.140;11.530;2024-03-25T10:02:54;3.23;;;1.63;;
19161;SDS011;9713;48.140;11.530;2024-03-25T10:06:35;4.53;;;1.97;;
19161;SDS011;9713;48.140;11.530;2024-03-25T10:10:18;3.77;;;1.40;;
19161;SDS011;9713;48.140;11.530;2024-03-25T10:14:00;2.67;;;1.30;;
19161;SDS011;9713;48.140;11.530;2024-03-25T10:17:41;3.97;;;1.30;;
19161;SDS011;9713;48.140;11.530;2024-03-25T10:21:24;4.37;;;1.60;;
19161;SDS011;9713;48.140;11.530;2024-03-25T10:25:05;3.73;;;1.53;;
19161;SDS011;9713;48.140;11.530;2024-03-25T10:28:47;3.73;;;1.40;;
19161;SDS011;9713;48.140;11.530;2024-03-25T10:32:39;3.97;;;1.63;;
19161;SDS011;9713;48.140;11.530;2024-03-25T10:36:24;5.30;;;1.40;;
19161;SDS011;9713;48.140;11.530;2024-03-25T10:40:06;3.47;;;1.50;;
19161;SDS011;9713;48.140;11.530;2024-03-25T10:43:48;2.47;;;1.00;;
19161;SDS011;9713;48.140;11.530;2024-03-25T10:47:29;2.63;;;1.50;;
19161;SDS011;9713;48.140;11.530;2024-03-25T10:51:10;5.03;;;1.50;;
19161;SDS011;9713;48.140;11.530;2024-03-25T10:54:53;3.00;;;1.40;;
19161;SDS011;9713;48.140;11.530;2024-03-25T10:58:35;2.93;;;1.20;;
19161;SDS011;9713;48.140;11.530;2024-03-25T11:02:16;4.63;;;1.30;;
19161;SDS011;9713;48.140;11.530;2024-03-25T11:05:58;1.83;;;1.23;;
19161;SDS011;9713;48.140;11.530;2024-03-25T11:09:39;4.13;;;1.33;;
19161;SDS011;9713;48.140;11.530;2024-03-25T11:13:22;1.83;;;1.30;;
19161;SDS011;9713;48.140;11.530;2024-03-25T11:17:13;4.70;;;1.80;;
19161;SDS011;9713;48.140;11.530;2024-03-25T11:21:01;3.33;;;1.60;;
19161;SDS011;9713;48.140;11.530;2024-03-25T11:24:43;5.83;;;1.70;;
19161;SDS011;9713;48.140;11.530;2024-03-25T11:28:29;3.63;;;1.97;;
19161;SDS011;9713;48.140;11.530;2024-03-25T11:32:10;4.93;;;1.40;;
19161;SDS011;9713;48.140;11.530;2024-03-25T11:35:51;3.83;;;1.43;;
19161;SDS011;9713;48.140;11.530;2024-03-25T11:39:32;3.87;;;1.47;;
19161;SDS011;9713;48.140;11.530;2024-03-25T11:43:19;2.40;;;1.33;;
19161;SDS011;9713;48.140;11.530;2024-03-25T11:47:04;2.77;;;1.40;;
19161;SDS011;9713;48.140;11.530;2024-03-25T11:50:45;5.53;;;1.20;;
19161;SDS011;9713;48.140;11.530;2024-03-25T11:54:31;2.60;;;1.27;;
19161;SDS011;9713;48.140;11.530;2024-03-25T11:58:12;4.40;;;1.20;;
19161;SDS011;9713;48.140;11.530;2024-03-25T12:01:53;2.00;;;1.23;;
19161;SDS011;9713;48.140;11.530;2024-03-25T12:05:35;2.53;;;1.47;;
19161;SDS011;9713;48.140;11.530;2024-03-25T12:09:16;4.13;;;1.53;;
19161;SDS011;9713;48.140;11.530;2024-03-25T12:13:16;3.63;;;1.23;;
19161;SDS011;9713;48.140;11.530;2024-03-25T12:16:57;2.47;;;1.10;;
19161;SDS011;9713;48.140;11.530;2024-03-25T12:20:39;3.80;;;1.20;;
19161;SDS011;9713;48.140;11.530;2024-03-25T12:24:23;3.67;;;1.13;;
19161;SDS011;9713;48.140;11.530;2024-03-25T12:28:07;5.63;;;1.70;;
19161;SDS011;9713;48.140;11.530;2024-03-25T12:31:55;2.27;;;1.40;;
19161;SDS011;9713;48.140;11.530;2024-03-25T12:35:36;2.70;;;1.23;;
19161;SDS011;9713;48.140;11.530;2024-03-25T12:39:21;2.67;;;1.20;;
19161;SDS011;9713;48.140;11.530;2024-03-25T12:43:02;2.23;;;1.20;;
19161;SDS011;9713;48.140;11.530;2024-03-25T12:46:45;6.13;;;1.40;;
19161;SDS011;9713;48.140;11.530;2024-03-25T12:50:26;2.17;;;1.00;;
19161;SDS011;9713;48.140;11.530;2024-03-25T12:54:07;2.00;;;1.07;;
19161;SDS011;9713;48.140;11.530;2024-03-25T12:57:49;2.00;;;1.00;;
19161;SDS011;9713;48.140;11.530;2024-03-25T13:01:30;1.73;;;1.00;;
19161;SDS011;9713;48.140;11.530;2024-03-25T13:05:12;1.83;;;0.93;;
19161;SDS011;9713;48.140;11.530;2024-03-25T13:08:53;1.57;;;0.80;;
19161;SDS011;9713;48.140;11.530;2024-03-25T13:12:34;4.27;;;1.20;;
19161;SDS011;9713;48.140;11.530;2024-03-25T13:16:16;3.60;;;1.37;;
19161;SDS011;9713;48.140;11.530;2024-03-25T13:19:57;2.00;;;1.10;;
19161;SDS011;9713;48.140;11.530;2024-03-25T13:23:38;2.53;;;0.87;;
19161;SDS011;9713;48.140;11.530;2024-03-25T13:27:19;1.53;;;0.90;;
19161;SDS011;9713;48.140;11.530;2024-03-25T13:31:00;1.47;;;1.00;;
19161;SDS011;9713;48.140;11.530;2024-03-25T13:34:43;3.10;;;0.97;;
19161;SDS011;9713;48.140;11.530;2024-03-25T13:38:24;2.87;;;1.23;;
19161;SDS011;9713;48.140;11.530;2024-03-25T13:42:05;2.83;;;0.90;;
19161;SDS011;9713;48.140;11.530;2024-03-25T13:45:47;4.47;;;0.93;;
19161;SDS011;9713;48.140;11.530;2024-03-25T13:49:29;1.83;;;0.83;;
19161;SDS011;9713;48.140;11.530;2024-03-25T13:53:11;4.07;;;1.40;;
19161;SDS011;9713;48.140;11.530;2024-03-25T13:56:52;2.90;;;0.87;;
19161;SDS011;9713;48.140;11.530;2024-03-25T14:00:33;2.77;;;1.00;;
19161;SDS011;9713;48.140;11.530;2024-03-25T14:04:14;7.43;;;0.93;;
19161;SDS011;9713;48.140;11.530;2024-03-25T14:07:55;2.17;;;1.10;;
19161;SDS011;9713;48.140;11.530;2024-03-25T14:11:38;2.47;;;1.10;;
19161;SDS011;9713;48.140;11.530;2024-03-25T14:15:19;2.37;;;1.13;;
19161;SDS011;9713;48.140;11.530;2024-03-25T14:19:00;2.00;;;0.80;;
19161;SDS011;9713;48.140;11.530;2024-03-25T14:22:44;1.77;;;0.70;;
19161;SDS011;9713;48.140;11.530;2024-03-25T14:26:26;2.67;;;1.00;;
19161;SDS011;9713;48.140;11.530;2024-03-25T14:30:08;2.07;;;1.00;;
19161;SDS011;9713;48.140;11.530;2024-03-25T14:33:50;4.17;;;0.80;;
19161;SDS011;9713;48.140;11.530;2024-03-25T14:37:32;3.33;;;1.13;;
19161;SDS011;9713;48.140;11.530;2024-03-25T14:41:13;3.60;;;1.00;;
19161;SDS011;9713;48.140;11.530;2024-03-25T14:44:54;3.80;;;1.23;;
19161;SDS011;9713;48.140;11.530;2024-03-25T14:48:36;4.10;;;1.43;;
19161;SDS011;9713;48.140;11.530;2024-03-25T14:52:17;4.80;;;1.47;;
19161;SDS011;9713;48.140;11.530;2024-03-25T14:55:58;3.40;;;1.37;;
19161;SDS011;9713;48.140;11.530;2024-03-25T14:59:40;3.60;;;1.20;;
19161;SDS011;9713;48.140;11.530;2024-03-25T15:03:21;2.20;;;1.40;;
19161;SDS011;9713;48.140;11.530;2024-03-25T15:07:04;4.23;;;1.37;;
19161;SDS011;9713;48.140;11.530;2024-03-25T15:10:45;6.53;;;1.10;;
19161;SDS011;9713;48.140;11.530;2024-03-25T15:14:27;1.83;;;1.20;;
19161;SDS011;9713;48.140;11.530;2024-03-25T15:18:08;2.70;;;1.20;;
19161;SDS011;9713;48.140;11.530;2024-03-25T15:21:50;4.80;;;1.20;;
19161;SDS011;9713;48.140;11.530;2024-03-25T15:25:32;2.77;;;1.67;;
19161;SDS011;9713;48.140;11.530;2024-03-25T15:29:13;4.27;;;1.67;;
19161;SDS011;9713;48.140;11.530;2024-03-25T15:32:54;2.60;;;1.53;;
19161;SDS011;9713;48.140;11.530;2024-03-25T15:36:36;2.43;;;1.30;;
19161;SDS011;9713;48.140;11.530;2024-03-25T15:40:17;4.40;;;1.20;;
19161;SDS011;9713;48.140;11.530;2024-03-25T15:43:59;3.07;;;1.40;;
19161;SDS011;9713;48.140;11.530;2024-03-25T15:47:40;4.13;;;1.43;;
19161;SDS011;9713;48.140;11.530;2024-03-25T15:51:21;2.47;;;1.27;;
19161;SDS011;9713;48.140;11.530;2024-03-25T15:55:02;3.27;;;1.67;;
19161;SDS011;9713;48.140;11.530;2024-03-25T15:58:43;4.40;;;1.33;;
19161;SDS011;9713;48.140;11.530;2024-03-25T16:02:26;2.67;;;1.20;;
19161;SDS011;9713;48.140;11.530;2024-03-25T16:06:09;4.63;;;1.30;;
19161;SDS011;9713;48.140;11.530;2024-03-25T16:09:50;3.17;;;1.10;;
19161;SDS011;9713;48.140;11.530;2024-03-25T16:13:31;2.97;;;1.50;;
19161;SDS011;9713;48.140;11.530;2024-03-25T16:17:12;3.97;;;1.43;;
19161;SDS011;9713;48.140;11.530;2024-03-25T16:20:54;2.93;;;1.10;;
19161;SDS011;9713;48.140;11.530;2024-03-25T16:24:35;2.00;;;1.13;;
19161;SDS011;9713;48.140;11.530;2024-03-25T16:28:16;2.03;;;1.07;;
19161;SDS011;9713;48.140;11.530;2024-03-25T16:31:57;2.07;;;1.13;;
19161;SDS011;9713;48.140;11.530;2024-03-25T16:35:39;2.97;;;1.30;;
19161;SDS011;9713;48.140;11.530;2024-03-25T16:39:21;2.50;;;1.40;;
19161;SDS011;9713;48.140;11.530;2024-03-25T16:43:02;5.03;;;1.50;;
19161;SDS011;9713;48.140;11.530;2024-03-25T16:46:43;3.13;;;1.40;;
19161;SDS011;9713;48.140;11.530;2024-03-25T16:50:27;6.87;;;1.80;;
19161;SDS011;9713;48.140;11.530;2024-03-25T16:54:08;3.07;;;1.37;;
19161;SDS011;9713;48.140;11.530;2024-03-25T16:57:51;2.50;;;1.17;;
19161;SDS011;9713;48.140;11.530;2024-03-25T17:01:32;1.53;;;0.93;;
19161;SDS011;9713;48.140;11.530;2024-03-25T17:05:13;3.63;;;1.17;;
19161;SDS011;9713;48.140;11.530;2024-03-25T17:08:54;2.53;;;1.00;;
19161;SDS011;9713;48.140;11.530;2024-03-25T17:12:35;1.57;;;1.00;;
19161;SDS011;9713;48.140;11.530;2024-03-25T17:16:18;6.37;;;1.87;;
19161;SDS011;9713;48.140;11.530;2024-03-25T17:19:59;2.77;;;1.10;;
19161;SDS011;9713;48.140;11.530;2024-03-25T17:23:40;3.30;;;1.10;;
19161;SDS011;9713;48.140;11.530;2024-03-25T17:27:21;1.77;;;1.00;;
19161;SDS011;9713;48.140;11.530;2024-03-25T17:31:02;2.90;;;1.00;;
19161;SDS011;9713;48.140;11.530;2024-03-25T17:34:45;2.17;;;1.00;;
19161;SDS011;9713;48.140;11.530;2024-03-25T17:38:26;1.30;;;1.00;;
19161;SDS011;9713;48.140;11.530;2024-03-25T17:42:07;2.67;;;1.20;;
19161;SDS011;9713;48.140;11.530;2024-03-25T17:45:48;2.67;;;1.30;;
19161;SDS011;9713;48.140;11.530;2024-03-25T17:49:29;2.03;;;1.40;;
19161;SDS011;9713;48.140;11.530;2024-03-25T17:53:11;2.73;;;1.20;;
19161;SDS011;9713;48.140;11.530;2024-03-25T17:56:52;4.03;;;1.40;;
19161;SDS011;9713;48.140;11.530;2024-03-25T18:00:34;2.20;;;1.30;;
19161;SDS011;9713;48.140;11.530;2024-03-25T18:04:15;5.83;;;1.80;;
19161;SDS011;9713;48.140;11.530;2024-03-25T18:07:56;3.37;;;1.43;;
19161;SDS011;9713;48.140;11.530;2024-03-25T18:11:38;4.60;;;1.67;;
19161;SDS011;9713;48.140;11.530;2024-03-25T18:15:19;3.60;;;1.23;;
19161;SDS011;9713;48.140;11.530;2024-03-25T18:19:00;3.57;;;1.50;;
19161;SDS011;9713;48.140;11.530;2024-03-25T18:22:41;3.67;;;1.57;;
19161;SDS011;9713;48.140;11.530;2024-03-25T18:26:22;3.73;;;1.73;;
19161;SDS011;9713;48.140;11.530;2024-03-25T18:30:05;4.20;;;1.70;;
19161;SDS011;9713;48.140;11.530;2024-03-25T18:33:47;3.80;;;1.63;;
19161;SDS011;9713;48.140;11.530;2024-03-25T18:37:28;5.00;;;2.00;;
19161;SDS011;9713;48.140;11.530;2024-03-25T18:41:09;6.03;;;2.03;;
19161;SDS011;9713;48.140;11.530;2024-03-25T18:44:50;5.37;;;2.10;;
19161;SDS011;9713;48.140;11.530;2024-03-25T18:48:32;4.83;;;1.93;;
19161;SDS011;9713;48.140;11.530;2024-03-25T18:52:13;9.43;;;2.40;;
19161;SDS011;9713;48.140;11.530;2024-03-25T18:55:54;3.87;;;2.30;;
19161;SDS011;9713;48.140;11.530;2024-03-25T18:59:36;2.70;;;1.70;;
19161;SDS011;9713;48.140;11.530;2024-03-25T19:03:17;6.13;;;1.80;;
19161;SDS011;9713;48.140;11.530;2024-03-25T19:06:59;3.30;;;1.60;;
19161;SDS011;9713;48.140;11.530;2024-03-25T19:10:40;5.13;;;1.87;;
19161;SDS011;9713;48.140;11.530;2024-03-25T19:14:21;3.73;;;1.60;;
19161;SDS011;9713;48.140;11.530;2024-03-25T19:18:03;5.00;;;2.10;;
19161;SDS011;9713;48.140;11.530;2024-03-25T19:21:44;4.23;;;2.10;;
19161;SDS011;9713;48.140;11.530;2024-03-25T19:25:27;4.63;;;2.17;;
19161;SDS011;9713;48.140;11.530;2024-03-25T19:29:08;4.60;;;2.20;;
19161;SDS011;9713;48.140;11.530;2024-03-25T19:32:49;4.13;;;2.20;;
19161;SDS011;9713;48.140;11.530;2024-03-25T19:36:30;4.70;;;2.20;;
19161;SDS011;9713;48.140;11.530;2024-03-25T19:40:11;5.37;;;2.20;;
19161;SDS011;9713;48.140;11.530;2024-03-25T19:43:54;5.97;;;2.60;;
19161;SDS011;9713;48.140;11.530;2024-03-25T19:47:35;5.37;;;2.30;;
19161;SDS011;9713;48.140;11.530;2024-03-25T19:51:16;8.33;;;2.57;;
19161;SDS011;9713;48.140;11.530;2024-03-25T19:54:57;2.73;;;1.90;;
19161;SDS011;9713;48.140;11.530;2024-03-25T19:58:38;7.30;;;2.73;;
19161;SDS011;9713;48.140;11.530;2024-03-25T20:02:21;5.20;;;2.73;;
19161;SDS011;9713;48.140;11.530;2024-03-25T20:06:02;6.53;;;2.20;;
19161;SDS011;9713;48.140;11.530;2024-03-25T20:09:44;4.60;;;2.30;;
19161;SDS011;9713;48.140;11.530;2024-03-25T20:13:25;4.70;;;2.60;;
19161;SDS011;9713;48.140;11.530;2024-03-25T20:17:06;6.30;;;2.90;;
19161;SDS011;9713;48.140;11.530;2024-03-25T20:20:49;5.13;;;2.87;;
19161;SDS011;9713;48.140;11.530;2024-03-25T20:24:30;6.40;;;2.50;;
19161;SDS011;9713;48.140;11.530;2024-03-25T20:28:11;4.13;;;2.57;;
19161;SDS011;9713;48.140;11.530;2024-03-25T20:31:52;7.07;;;2.50;;
19161;SDS011;9713;48.140;11.530;2024-03-25T20:35:33;5.70;;;2.77;;
19161;SDS011;9713;48.140;11.530;2024-03-25T20:39:16;5.77;;;2.60;;
19161;SDS011;9713;48.140;11.530;2024-03-25T20:42:57;4.50;;;2.70;;
19161;SDS011;9713;48.140;11.530;2024-03-25T20:46:38;5.00;;;2.57;;
19161;SDS011;9713;48.140;11.530;2024-03-25T20:50:19;6.47;;;2.57;;
19161;SDS011;9713;48.140;11.530;2024-03-25T20:54:00;4.73;;;2.53;;
19161;SDS011;9713;48.140;11.530;2024-03-25T20:57:42;4.83;;;2.30;;
19161;SDS011;9713;48.140;11.530;2024-03-25T21:01:23;5.20;;;2.63;;
19161;SDS011;9713;48.140;11.530;2024-03-25T21:05:04;5.77;;;2.40;;
19161;SDS011;9713;48.140;11.530;2024-03-25T21:08:46;4.73;;;2.20;;
19161;SDS011;9713;48.140;11.530;2024-03-25T21:12:30;4.77;;;2.20;;
19161;SDS011;9713;48.140;11.530;2024-03-25T21:16:12;4.90;;;2.60;;
19161;SDS011;9713;48.140;11.530;2024-03-25T21:19:53;5.47;;;3.00;;
19161;SDS011;9713;48.140;11.530;2024-03-25T21:23:34;6.83;;;2.63;;
19161;SDS011;9713;48.140;11.530;2024-03-25T21:27:15;3.70;;;2.50;;
19161;SDS011;9713;48.140;11.530;2024-03-25T21:30:56;6.80;;;3.43;;
19161;SDS011;9713;48.140;11.530;2024-03-25T21:34:39;7.73;;;3.50;;
19161;SDS011;9713;48.140;11.530;2024-03-25T21:38:20;5.13;;;3.00;;
19161;SDS011;9713;48.140;11.530;2024-03-25T21:42:01;5.67;;;2.60;;
19161;SDS011;9713;48.140;11.530;2024-03-25T21:45:42;5.77;;;2.80;;
19161;SDS011;9713;48.140;11.530;2024-03-25T21:49:23;6.43;;;3.40;;
19161;SDS011;9713;48.140;11.530;2024-03-25T21:53:05;6.13;;;2.77;;
19161;SDS011;9713;48.140;11.530;2024-03-25T21:56:46;4.00;;;2.40;;
19161;SDS011;9713;48.140;11.530;2024-03-25T22:00:27;3.73;;;2.30;;
19161;SDS011;9713;48.140;11.530;2024-03-25T22:04:09;3.93;;;2.23;;
19161;SDS011;9713;48.140;11.530;2024-03-25T22:07:50;5.73;;;2.50;;
19161;SDS011;9713;48.140;11.530;2024-03-25T22:11:32;5.83;;;2.57;;
19161;SDS011;9713;48.140;11.530;2024-03-25T22:15:13;5.33;;;2.50;;
19161;SDS011;9713;48.140;11.530;2024-03-25T22:18:54;5.17;;;2.60;;